< < Back
Terminal Aerodrome Forecast


Current Version              Previous Versions:   1  2  3  4  5  6  7  8  9  

Terminal Aerodrome Forecast

310
FTUS42 KFFC 282333
TAFCSG
TAF
KCSG 282333Z 2900/2924 08005KT P6SM SCT250
     FM291400 08009KT P6SM OVC050
     FM291800 08009KT P6SM BKN040=

Latest METAR

201
SAUS70 KWBC 290500
MTRCSG
METAR KCSG 290451Z AUTO 10007KT 10SM CLR 27/20 A3006 RMK AO2 SLP172
T02720200 403440228


USA.gov is the U.S. government's official web portal to all federal, state and local government web resources and services.